Terminal Aerodrome Forecast
Issued by NWS Charleston, WV

Current Version | Previous Version | Graphics & Text | Print | Product List | Glossary On
Versions: 1 2 3 4 5 6 7 8 9 10 11 12 13 14 15 16 17 18 19 20 21 22 23 24 25 26 27 28
000
FTUS41 KRLX 221520 AAC
TAFPKB
TAF AMD
KPKB 221520Z 2215/2312 00000KT 2SM BR SCT002 BKN250
      TEMPO 2215/2216 4SM BR BKN250
     FM221600 04003KT P6SM FEW050 BKN250
      TEMPO 2216/2217 5SM BR
     FM230000 00000KT P6SM SKC
     FM230700 00000KT 4SM BR SKC
     FM230900 00000KT 1/2SM FG VV001=

USA.gov is the U.S. government's official web portal to all federal, state and local government web resources and services.